Terminal Aerodrome Forecast
Issued by NWS Newport/Morehead City, NC

Home | Current Version | Previous Version | Text Only | Print | Product List | Glossary Off
Versions: 1 2 3 4 5 6 7 8 9 10 11 12 13 14 15

000
FTUS42 KMHX 300500
TAFEWN
TAF
KEWN 300531Z 3006/3106 05003KT P6SM SCT100
     FM300900 06003KT 5SM BR SKC
     FM301200 05006KT P6SM SCT040
     FM302300 10004KT P6SM SCT040=

USA.gov is the U.S. government's official web portal to all federal, state and local government web resources and services.